Chattanooga, TN

8:13 PM EST on December 22, 2014 (GMT -0500)
Lazard St | Change Station
CLOSE
Current Station
Personal Weather Station
Location: East Ridge, TN
Elevation: 722 ft
Nearby Weather Stations

Elev 722 ft 34.99 °N, 85.24 °W | Updated 0 second ago

Overcast
Overcast
46.9 °F
Feels Like 47 °F
N
0.0
Wind Variable Wind from NE
Gusts 4.0 mph

Today
High -- | Low -- °F
--% Chance of Precip.
Yesterday
High -- | Low -- °F
Precip. -- in
7:45 AM 5:33 PM
New Moon, 1% visible
Pressure 29.86 in
Visibility 6.0 miles
Clouds Overcast 1400 ft
Windchill 47 °F
Dew Point 45 °F
Humidity 93%
Rainfall 0.02 in
Snow Depth Not available.
UV 0 out of 12
Pollen .30 out of 12
Air Quality Not available.
Flu Activity Not available.
METAR KCHA 230053Z 18007KT 6SM -RA BR OVC014 09/07 A2986 RMK AO2 RAB06E25B49 SLP111 P0001 T00890072

More Conditions Fewer Conditions

Pressure 29.86 in
Visibility 6.0 miles
Clouds Overcast 1400 ft
Windchill 47 °F
Dew Point 45 °F
Humidity 93%
Rainfall 0.02 in
Snow Depth Not available.
UV 0 out of 12
Pollen .30 out of 12
Air Quality Not available.
Flu Activity Not available.
METAR KCHA 230053Z 18007KT 6SM -RA BR OVC014 09/07 A2986 RMK AO2 RAB06E25B49 SLP111 P0001 T00890072

More Conditions Fewer Conditions

10-Day Weather Forecast

Almanac

Astronomy

Dec. 22, 2014 Rise Set
Actual Time
Civil Twilight
Nautical Twilight
Astronomical Twilight
Moon
Length of Visible Light
Length of Day
Tomorrow will be .
, % of the Moon is Illuminated

Today's Extremes

State Highs State Lows

Community

WunderPhotos

Upload Photos

1,779,745 photos uploaded!

WunderBlogs® & News

Nearby

Air Quality

  Air Quality AQ Index Pollutant
Not available.

Snow Depth

Station Depth Elevation

Earthquake Activity

City Distance Mag. Time & Date
Minimum magnitude displayed is 2.5.

Coastal Water Temperatures

Place Temperature

Nearby Weather Stations